createdAt,value
2019-01-08T00:00:35.766Z,2.73
2019-01-08T00:03:04.965Z,2.83
2019-01-08T00:05:34.174Z,2.60
2019-01-08T00:08:03.352Z,2.67
2019-01-08T00:10:32.636Z,3.20
2019-01-08T00:13:01.934Z,2.93
2019-01-08T00:15:31.119Z,3.40
2019-01-08T00:18:00.311Z,2.50
2019-01-08T00:20:29.574Z,2.93
2019-01-08T00:22:58.711Z,3.20
2019-01-08T00:25:27.966Z,2.43
2019-01-08T00:27:57.185Z,2.30
2019-01-08T00:30:26.344Z,2.93
2019-01-08T00:32:55.451Z,1.90
2019-01-08T00:35:24.724Z,2.43
2019-01-08T00:37:53.954Z,5.10
2019-01-08T00:40:23.268Z,2.27
2019-01-08T00:42:52.499Z,2.40
2019-01-08T00:45:21.800Z,2.40
2019-01-08T00:47:51.150Z,2.23
2019-01-08T00:50:20.524Z,2.43
2019-01-08T00:52:49.726Z,3.03
2019-01-08T00:55:18.854Z,4.20
2019-01-08T00:57:48.061Z,5.37
2019-01-08T01:00:18.114Z,3.53
2019-01-08T01:02:47.409Z,4.57
2019-01-08T01:05:16.690Z,4.70
2019-01-08T01:07:46.028Z,6.00
2019-01-08T01:10:15.350Z,5.03
2019-01-08T01:12:44.674Z,5.00
2019-01-08T01:15:13.962Z,6.27
2019-01-08T01:17:43.284Z,5.10
2019-01-08T01:20:12.565Z,9.40
2019-01-08T01:22:41.725Z,6.07
2019-01-08T01:25:10.930Z,5.00
2019-01-08T01:27:40.137Z,5.97
2019-01-08T01:30:09.281Z,6.20
2019-01-08T01:32:38.415Z,7.40
2019-01-08T01:35:07.621Z,6.97
2019-01-08T01:37:36.864Z,5.57
2019-01-08T01:40:06.452Z,11.33
2019-01-08T01:42:35.726Z,7.20
2019-01-08T01:45:04.939Z,9.50
2019-01-08T01:47:34.116Z,8.97
2019-01-08T01:50:04.982Z,10.63
2019-01-08T01:52:34.077Z,7.93
2019-01-08T01:55:03.285Z,8.13
2019-01-08T01:57:32.474Z,8.43
2019-01-08T02:00:01.710Z,7.83
2019-01-08T02:02:30.964Z,9.23
2019-01-08T13:34:14.338Z,9.87
2019-01-08T13:36:43.559Z,10.63
2019-01-08T13:39:13.009Z,10.47
2019-01-08T13:41:42.286Z,14.53
2019-01-08T13:44:11.517Z,15.33
2019-01-08T13:46:40.805Z,20.73
2019-01-08T13:49:10.005Z,22.20
2019-01-08T13:51:39.210Z,12.73
2019-01-08T13:54:08.488Z,17.40
2019-01-08T13:56:37.638Z,10.33
2019-01-08T13:59:06.768Z,17.33
2019-01-08T14:01:35.959Z,10.73
2019-01-08T14:04:05.227Z,7.70
2019-01-08T14:06:34.450Z,15.23
2019-01-08T14:09:04.850Z,15.97
2019-01-08T14:11:34.029Z,13.33
2019-01-08T14:14:03.303Z,22.13
2019-01-08T14:16:32.498Z,14.13
2019-01-08T14:19:01.751Z,22.63
2019-01-08T14:21:30.965Z,12.23
2019-01-08T14:24:00.198Z,17.97
2019-01-08T14:26:29.457Z,15.10
2019-01-08T14:28:58.674Z,13.47
2019-01-08T14:31:27.881Z,15.43
2019-01-08T14:33:57.130Z,16.00
2019-01-08T14:36:26.637Z,9.80
2019-01-08T14:38:55.822Z,10.80
2019-01-08T14:41:25.053Z,14.67
2019-01-08T14:43:54.234Z,13.63
2019-01-08T14:46:23.460Z,8.10
2019-01-08T14:48:52.731Z,7.23
2019-01-08T14:51:21.948Z,10.03
2019-01-08T14:53:51.154Z,9.07
2019-01-08T14:56:20.388Z,13.60
2019-01-08T14:58:49.983Z,10.00
2019-01-08T15:01:19.265Z,11.03
2019-01-08T15:03:48.582Z,10.80
2019-01-08T15:06:17.864Z,13.37
2019-01-08T15:08:47.177Z,9.93
2019-01-08T15:11:16.343Z,16.60
2019-01-08T15:13:45.569Z,14.70
2019-01-08T15:16:14.813Z,10.97
2019-01-08T15:18:46.826Z,13.80
2019-01-08T15:21:15.997Z,13.57
2019-01-08T15:23:45.214Z,11.57
2019-01-08T15:26:14.410Z,4.90
2019-01-08T15:28:43.731Z,8.30
2019-01-08T15:31:12.955Z,8.80
2019-01-08T15:33:42.153Z,8.50
2019-01-08T15:36:11.397Z,14.77
2019-01-08T15:38:40.552Z,8.47
2019-01-08T15:41:09.801Z,8.73
2019-01-08T15:43:39.109Z,10.03
2019-01-08T15:46:08.429Z,11.53
2019-01-08T15:48:37.649Z,9.70
2019-01-08T15:51:06.808Z,12.17
2019-01-08T15:53:36.037Z,13.50
2019-01-08T15:56:05.491Z,10.60
2019-01-08T15:58:34.662Z,14.07
2019-01-08T16:01:05.534Z,20.50
2019-01-08T16:03:35.604Z,11.30
2019-01-08T16:06:05.167Z,9.40
2019-01-08T16:08:34.679Z,12.27
2019-01-08T16:11:03.922Z,9.33
2019-01-08T16:13:33.264Z,13.03
2019-01-08T16:16:02.446Z,15.00
2019-01-08T16:18:32.977Z,11.03
2019-01-08T16:21:02.196Z,12.80
2019-01-08T16:23:31.608Z,14.70
2019-01-08T16:26:00.732Z,11.60
2019-01-08T16:28:30.014Z,10.30
2019-01-08T16:30:59.311Z,20.07
2019-01-08T16:33:28.533Z,14.60
2019-01-08T16:35:57.858Z,10.47
2019-01-08T16:38:27.198Z,13.83
2019-01-08T16:40:56.491Z,10.17
2019-01-08T16:43:25.726Z,16.30
2019-01-08T16:45:55.009Z,8.87
2019-01-08T16:48:24.227Z,17.77
2019-01-08T16:50:53.525Z,15.97
2019-01-08T16:53:22.625Z,13.83
2019-01-08T16:55:51.755Z,20.30
2019-01-08T16:58:22.899Z,12.30
2019-01-08T17:00:52.023Z,10.10
2019-01-08T17:03:25.545Z,14.53
2019-01-08T17:05:52.120Z,11.50
2019-01-08T17:08:21.369Z,5.93
2019-01-08T17:10:50.574Z,10.50
2019-01-08T17:13:19.843Z,11.90
2019-01-08T17:15:48.942Z,10.80
2019-01-08T17:18:18.214Z,12.23
2019-01-08T17:20:47.536Z,7.53
2019-01-08T17:23:16.812Z,6.53
2019-01-08T17:25:48.073Z,16.57
2019-01-08T17:28:16.990Z,13.80
2019-01-08T17:30:46.103Z,10.10
2019-01-08T17:33:15.290Z,9.03
2019-01-08T17:35:44.496Z,9.10
2019-01-08T17:38:13.742Z,9.03
2019-01-08T17:40:42.956Z,13.30
2019-01-08T17:43:12.185Z,6.23
2019-01-08T17:45:41.438Z,5.10
2019-01-08T17:48:10.723Z,5.90
2019-01-08T17:50:39.838Z,5.67
2019-01-08T17:53:09.158Z,10.33
2019-01-08T17:55:38.439Z,7.80
2019-01-08T17:58:44.209Z,5.90
2019-01-08T18:01:28.386Z,8.67
2019-01-08T18:03:57.673Z,7.03
2019-01-08T18:06:26.919Z,5.37
2019-01-08T18:08:56.201Z,5.33
2019-01-08T18:11:25.402Z,5.33
2019-01-08T18:13:54.623Z,8.63
2019-01-08T18:16:23.848Z,5.53
2019-01-08T18:18:53.128Z,10.13
2019-01-08T18:21:22.328Z,3.80
2019-01-08T18:23:51.610Z,3.37
2019-01-08T18:26:20.767Z,12.13
2019-01-08T18:28:50.118Z,34.30
2019-01-08T18:31:19.322Z,23.37
2019-01-08T18:33:51.801Z,10.03
2019-01-08T18:36:19.564Z,4.47
2019-01-08T18:38:48.882Z,7.20
2019-01-08T18:41:18.116Z,3.23
2019-01-08T18:43:47.322Z,3.67
2019-01-08T18:46:16.573Z,5.03
2019-01-08T18:48:45.784Z,8.90
2019-01-08T18:51:15.000Z,5.27
2019-01-08T18:53:44.225Z,7.40
2019-01-08T18:56:13.493Z,6.60
2019-01-08T18:58:42.749Z,2.67
2019-01-08T19:01:12.033Z,5.50
2019-01-08T19:03:41.272Z,8.70
2019-01-08T19:06:10.607Z,6.43
2019-01-08T19:09:15.538Z,6.20
2019-01-08T19:11:44.812Z,15.00
2019-01-08T19:14:14.902Z,9.33
2019-01-08T19:16:44.141Z,2.67
2019-01-08T19:19:13.430Z,5.87
2019-01-08T19:21:42.639Z,5.20
2019-01-08T19:24:11.916Z,3.17
2019-01-08T19:26:41.106Z,7.27
2019-01-08T19:29:10.316Z,5.03
2019-01-08T19:31:39.517Z,4.80
2019-01-08T19:34:09.564Z,7.53
2019-01-08T19:36:39.042Z,7.57
2019-01-08T19:39:08.888Z,7.97
2019-01-08T19:41:38.026Z,4.37
2019-01-08T19:44:07.232Z,5.07
2019-01-08T19:46:36.455Z,6.33
2019-01-08T19:49:05.726Z,4.13
2019-01-08T19:51:34.941Z,4.27
2019-01-08T19:54:04.145Z,8.93
2019-01-08T19:56:33.454Z,5.90
2019-01-08T19:59:02.672Z,5.10
2019-01-08T20:01:31.892Z,4.23
2019-01-08T20:04:01.081Z,5.20
2019-01-08T20:06:30.368Z,5.57
2019-01-08T20:08:59.597Z,2.50
2019-01-08T20:11:28.815Z,3.30
2019-01-08T20:13:58.130Z,3.53
2019-01-08T20:16:27.329Z,3.07
2019-01-08T20:18:56.597Z,8.00
2019-01-08T20:21:25.977Z,2.87
2019-01-08T20:23:55.081Z,3.07
2019-01-08T20:26:24.357Z,2.10
2019-01-08T20:28:53.569Z,2.93
2019-01-08T20:31:22.816Z,6.57
2019-01-08T20:33:52.040Z,3.00
2019-01-08T20:36:21.328Z,3.87
2019-01-08T20:38:50.542Z,5.70
2019-01-08T20:41:19.774Z,7.50
2019-01-08T20:43:48.999Z,3.53
2019-01-08T20:46:18.271Z,7.27
2019-01-08T20:48:47.478Z,7.73
2019-01-08T20:51:16.720Z,5.80
2019-01-08T20:53:46.009Z,6.40
2019-01-08T20:56:15.203Z,4.57
2019-01-08T20:58:44.448Z,5.10
2019-01-08T21:01:13.734Z,4.30
2019-01-08T21:03:42.882Z,8.37
2019-01-08T21:06:12.039Z,3.93
2019-01-08T21:08:41.155Z,5.93
2019-01-08T21:11:10.326Z,6.77
2019-01-08T21:13:39.565Z,9.47
2019-01-08T21:16:08.794Z,7.47
2019-01-08T21:18:38.003Z,4.27
2019-01-08T21:21:07.309Z,4.40
2019-01-08T21:23:36.518Z,10.23
2019-01-08T21:26:05.730Z,9.07
2019-01-08T21:28:35.009Z,7.27
2019-01-08T21:31:04.222Z,6.63
2019-01-08T21:33:33.498Z,5.17
2019-01-08T21:36:02.729Z,5.70
2019-01-08T21:38:32.040Z,4.77
2019-01-08T21:41:01.249Z,7.23
2019-01-08T21:43:30.474Z,4.67
2019-01-08T21:45:59.754Z,4.30
2019-01-08T21:48:28.882Z,19.20
2019-01-08T21:50:58.071Z,13.47
2019-01-08T21:53:27.317Z,8.47
2019-01-08T21:55:56.436Z,8.97
2019-01-08T21:58:25.703Z,4.60
2019-01-08T22:00:54.958Z,6.37
2019-01-08T22:03:24.171Z,8.03
2019-01-08T22:05:53.389Z,5.50
2019-01-08T22:08:22.705Z,9.40
2019-01-08T22:10:51.986Z,6.63
2019-01-08T22:13:21.273Z,6.20
2019-01-08T22:15:50.598Z,4.23
2019-01-08T22:18:20.237Z,5.10
2019-01-08T22:20:49.408Z,4.77
2019-01-08T22:23:18.637Z,9.17
2019-01-08T22:25:48.000Z,7.87
2019-01-08T22:28:17.310Z,7.67
2019-01-08T22:30:46.522Z,5.60
2019-01-08T22:33:16.764Z,11.07
2019-01-08T22:35:46.109Z,10.90
2019-01-08T22:38:15.296Z,4.33
2019-01-08T22:40:44.617Z,8.47
2019-01-08T22:43:13.869Z,4.93
2019-01-08T22:45:43.079Z,8.63
2019-01-08T22:48:12.386Z,7.50
2019-01-08T22:50:41.529Z,13.60
2019-01-08T22:53:10.802Z,5.50
2019-01-08T22:55:40.099Z,12.63
2019-01-08T22:58:09.349Z,9.13
2019-01-08T23:01:08.332Z,4.73
2019-01-08T23:03:38.026Z,11.03
2019-01-08T23:06:07.286Z,5.37
2019-01-08T23:08:36.421Z,8.47
2019-01-08T23:11:05.598Z,8.33
2019-01-08T23:13:34.823Z,5.10
2019-01-08T23:16:04.059Z,4.13
2019-01-08T23:18:33.266Z,6.53
2019-01-08T23:21:02.510Z,4.20
2019-01-08T23:23:31.774Z,7.13
2019-01-08T23:26:01.001Z,5.40
2019-01-08T23:28:30.308Z,4.53
2019-01-08T23:30:59.682Z,3.47
2019-01-08T23:33:28.979Z,7.23
2019-01-08T23:35:58.199Z,5.60
2019-01-08T23:38:27.545Z,8.47
2019-01-08T23:40:56.815Z,5.13
2019-01-08T23:43:26.074Z,12.03
2019-01-08T23:45:55.372Z,5.63
2019-01-08T23:48:24.694Z,6.47
2019-01-08T23:50:54.007Z,6.57
2019-01-08T23:53:30.278Z,5.07
2019-01-08T23:56:02.573Z,13.23
2019-01-08T23:58:31.755Z,9.40
